Thunder radar more information blitzortung!


Radar de pluja more information rain snow radar


Visita la nostra xarxa de llocs de meteo:

Template documentation
and downloads

And another site



No particular awareness of the weather is required.    There are no Weather-warnings

Pagina Historial Weather Underground text

Diari Resum Juliol 10, 2017 Unitats:  Imperial    Mètric   Tant
« Previous Dia
SegĂźent Dia »
Diari Setmana Mensual Anual Personalitzada
  Maxima: Minima: Media:
Temperatura: TemperatureC °F 19.8 °F 26.6 °F
Punt de rosada: DewpointC °F 12.4 °F 15.7 °F
Humitat: Humidity % 33 % 53 %
Wind Speed: WindSpeedKMH mph 0.0 mph 7.1 mph
RĂ fegues de vent: WindSpeedGustKMH mph - -
Vent:- - SE
Pression baro: PressurehPa in 1010.0 in -
Precipitacions: 0.0 in    
Historical Graphs
 
 
Dades de taula per Juliol 10, 2017
Temps Temperatura Punt de rosada Pression baro Vent Wind Speed RĂ fegues de vent Humitat Rainfall Rate (Hourly)
TemperatureC °F DewpointC °F PressurehPa in Calm     Humidity % HourlyPrecipMM in
00:00 20.4 °F 17.4 °F 1011.7 in Calm   3.2 mph 83 % 0.0 in
00:04 22.7 °F 18.2 °F 1011.7 in ENE 3.7 mph 3.7 mph 76 % 0.0 in
00:10 20.4 °F 17.4 °F 1011.7 in NE 1.6 mph 3.2 mph 83 % 0.0 in
00:20 20.3 °F 17.3 °F 1011.7 in NE 1.6 mph 3.2 mph 83 % 0.0 in
00:30 20.2 °F 17.2 °F 1011.7 in NE 1.6 mph 4.8 mph 83 % 0.0 in
00:40 20.2 °F 17.2 °F 1011.7 in NE 3.2 mph 4.8 mph 83 % 0.0 in
00:50 20.1 °F 17.1 °F 1011.7 in Calm   1.6 mph 83 % 0.0 in
01:00 20.0 °F 17.0 °F 1011.7 in Calm   3.2 mph 83 % 0.0 in
01:10 20.0 °F 17.0 °F 1011.7 in ENE 3.2 mph 3.2 mph 83 % 0.0 in
01:20 20.0 °F 16.8 °F 1011.7 in NE 3.2 mph 4.8 mph 82 % 0.0 in
01:30 20.0 °F 16.8 °F 1011.7 in North 1.6 mph 4.8 mph 82 % 0.0 in
01:40 19.9 °F 16.9 °F 1011.7 in Calm   3.2 mph 83 % 0.0 in
01:50 19.8 °F 16.8 °F 1011.7 in NNE 1.6 mph 3.2 mph 83 % 0.0 in
02:00 19.8 °F 16.8 °F 1011.7 in ENE 1.6 mph 3.2 mph 83 % 0.0 in
02:10 19.9 °F 16.9 °F 1011.7 in NE 1.6 mph 4.8 mph 83 % 0.0 in
02:20 20.0 °F 16.8 °F 1011.7 in NE 1.6 mph 3.2 mph 82 % 0.0 in
02:30 20.0 °F 16.8 °F 1011.7 in NE 1.6 mph 3.2 mph 82 % 0.0 in
02:40 20.2 °F 17.0 °F 1011.7 in NE 1.6 mph 3.2 mph 82 % 0.0 in
02:50 20.6 °F 17.4 °F 1011.7 in NE 1.6 mph 4.8 mph 82 % 0.0 in
03:00 21.0 °F 17.4 °F 1011.7 in NE 1.6 mph 1.6 mph 80 % 0.0 in
03:10 21.1 °F 17.3 °F 1011.7 in NE 3.2 mph 4.8 mph 79 % 0.0 in
03:20 22.0 °F 18.0 °F 1011.7 in NNE 1.6 mph 4.8 mph 78 % 0.0 in
03:30 22.0 °F 17.6 °F 1011.7 in NE 4.8 mph 6.4 mph 76 % 0.0 in
03:40 22.1 °F 17.7 °F 1011.7 in NE 4.8 mph 8.0 mph 76 % 0.0 in
03:50 23.3 °F 18.2 °F 1011.7 in NNE 3.2 mph 8.0 mph 73 % 0.0 in
04:00 22.9 °F 17.6 °F 1011.7 in NNE 8.0 mph 8.0 mph 72 % 0.0 in
04:10 22.9 °F 17.8 °F 1011.7 in NNE 1.6 mph 4.8 mph 73 % 0.0 in
04:20 23.0 °F 17.7 °F 1011.7 in NNE 4.8 mph 6.4 mph 72 % 0.0 in
04:30 23.1 °F 17.8 °F 1012.8 in NNE 1.6 mph 3.2 mph 72 % 0.0 in
04:40 23.5 °F 17.7 °F 1012.8 in NNE 1.6 mph 3.2 mph 70 % 0.0 in
04:50 23.7 °F 17.9 °F 1012.8 in Calm   3.2 mph 70 % 0.0 in
05:00 23.8 °F 18.0 °F 1012.8 in West 1.6 mph 1.6 mph 70 % 0.0 in
10:03 24.0 °F 17.9 °F 1012.8 in ESE 3.7 mph   69 % 0.0 in
10:08 24.3 °F 18.0 °F 1012.8 in SW 2.6 mph 2.6 mph 68 % 0.0 in
10:13 24.6 °F 18.3 °F 1012.8 in SW 3.7 mph 3.7 mph 68 % 0.0 in
10:18 24.8 °F 18.5 °F 1012.8 in WSW 3.7 mph 3.7 mph 68 % 0.0 in
10:23 24.4 °F 18.1 °F 1012.8 in WSW 3.9 mph 3.9 mph 68 % 0.0 in
10:28 24.7 °F 18.4 °F 1012.8 in SE 6.1 mph 6.1 mph 68 % 0.0 in
10:33 24.9 °F 18.6 °F 1012.8 in SE 4.2 mph 4.2 mph 68 % 0.0 in
10:38 25.2 °F 18.4 °F 1012.8 in SE 7.4 mph 7.4 mph 66 % 0.0 in
10:43 25.2 °F 18.2 °F 1012.8 in ESE 5.6 mph 5.6 mph 65 % 0.0 in
10:48 25.4 °F 18.1 °F 1012.8 in NNE 9.3 mph 9.3 mph 64 % 0.0 in
10:53 25.8 °F 18.7 °F 1012.8 in ENE 7.9 mph 7.9 mph 65 % 0.0 in
10:58 26.0 °F 18.7 °F 1012.8 in ENE 6.1 mph 6.1 mph 64 % 0.0 in
11:03 25.9 °F 18.3 °F 1012.8 in WNW 9.3 mph 9.3 mph 63 % 0.0 in
11:08 26.1 °F 18.2 °F 1012.8 in ENE 7.4 mph 7.4 mph 62 % 0.0 in
11:13 26.5 °F 18.6 °F 1012.8 in West 3.7 mph 3.9 mph 62 % 0.0 in
11:18 26.9 °F 18.7 °F 1012.8 in NE 4.7 mph 4.7 mph 61 % 0.0 in
11:23 26.9 °F 18.5 °F 1012.8 in South 5.6 mph 5.8 mph 60 % 0.0 in
11:28 27.1 °F 18.4 °F 1012.8 in ESE 3.9 mph 3.9 mph 59 % 0.0 in
11:33 27.5 °F 18.8 °F 1012.8 in SSW 5.6 mph 5.6 mph 59 % 0.0 in
11:38 27.7 °F 18.9 °F 1011.7 in ENE 3.9 mph 3.9 mph 59 % 0.0 in
11:43 27.0 °F 18.3 °F 1011.7 in ENE 9.3 mph 9.3 mph 59 % 0.0 in
11:48 27.1 °F 18.4 °F 1011.7 in ENE 9.3 mph 9.3 mph 59 % 0.0 in
11:53 27.5 °F 18.5 °F 1011.7 in SE 13.0 mph 13.0 mph 58 % 0.0 in
11:58 27.9 °F 18.6 °F 1011.7 in SE 11.1 mph 11.1 mph 57 % 0.0 in
12:03 28.1 °F 18.5 °F 1011.7 in East 5.6 mph 5.6 mph 56 % 0.0 in
12:08 28.0 °F 18.1 °F 1011.7 in NE 9.3 mph 9.3 mph 55 % 0.0 in
12:13 27.9 °F 18.0 °F 1011.7 in East 5.6 mph 5.6 mph 55 % 0.0 in
12:18 27.8 °F 17.9 °F 1011.7 in ENE 7.6 mph 7.6 mph 55 % 0.0 in
12:23 28.2 °F 18.0 °F 1011.7 in ESE 5.6 mph 5.6 mph 54 % 0.0 in
12:28 28.2 °F 18.0 °F 1011.7 in ESE 14.8 mph 14.8 mph 54 % 0.0 in
12:33 28.1 °F 17.9 °F 1011.7 in NE 11.1 mph 11.1 mph 54 % 0.0 in
12:38 28.6 °F 18.4 °F 1011.7 in ESE 16.7 mph 16.7 mph 54 % 0.0 in
12:43 28.6 °F 18.4 °F 1011.7 in ESE 13.0 mph 13.0 mph 54 % 0.0 in
12:48 28.7 °F 18.2 °F 1011.7 in East 18.5 mph 18.5 mph 53 % 0.0 in
12:53 28.5 °F 18.0 °F 1011.7 in East 25.9 mph 25.9 mph 53 % 0.0 in
12:58 28.7 °F 18.2 °F 1011.7 in ESE 14.8 mph 14.8 mph 53 % 0.0 in
13:03 28.9 °F 18.1 °F 1011.7 in SSE 20.4 mph 20.4 mph 52 % 0.0 in
13:08 29.0 °F 17.8 °F 1011.7 in ESE 11.1 mph 11.1 mph 51 % 0.0 in
13:13 28.8 °F 17.9 °F 1011.7 in ESE 16.4 mph 16.4 mph 52 % 0.0 in
13:18 28.7 °F 17.9 °F 1011.7 in ESE 13.7 mph 13.7 mph 52 % 0.0 in
13:23 28.7 °F 17.9 °F 1011.7 in East 16.7 mph 16.7 mph 52 % 0.0 in
13:28 28.8 °F 17.9 °F 1011.7 in East 20.4 mph 20.4 mph 52 % 0.0 in
13:33 28.9 °F 18.1 °F 1011.7 in East 16.7 mph 16.7 mph 52 % 0.0 in
13:38 28.8 °F 17.7 °F 1011.7 in South 20.4 mph 20.4 mph 51 % 0.0 in
13:43 29.9 °F 18.1 °F 1011.7 in WNW 7.4 mph 7.4 mph 49 % 0.0 in
13:48 31.1 °F 17.8 °F 1011.7 in SW 5.6 mph 5.6 mph 45 % 0.0 in
13:53 30.8 °F 18.2 °F 1010.7 in East 9.3 mph 9.3 mph 47 % 0.0 in
13:58 30.2 °F 17.7 °F 1010.7 in ESE 16.7 mph 16.7 mph 47 % 0.0 in
14:03 29.8 °F 17.6 °F 1010.7 in ESE 16.9 mph 16.9 mph 48 % 0.0 in
14:08 29.7 °F 17.5 °F 1011.7 in SSE 18.5 mph 18.5 mph 48 % 0.0 in
14:13 30.3 °F 17.7 °F 1011.7 in SSE 16.7 mph 16.7 mph 47 % 0.0 in
14:18 30.7 °F 18.4 °F 1011.7 in East 12.2 mph 12.2 mph 48 % 0.0 in
14:23 30.3 °F 17.7 °F 1010.7 in ESE 16.7 mph 16.7 mph 47 % 0.0 in
14:28 31.2 °F 17.8 °F 1010.7 in SW 5.6 mph 5.6 mph 45 % 0.0 in
14:33 31.7 °F 17.9 °F 1010.7 in South 11.1 mph 11.1 mph 44 % 0.0 in
14:38 30.5 °F 17.9 °F 1010.7 in East 11.1 mph 11.1 mph 47 % 0.0 in
14:43 31.0 °F 17.3 °F 1010.7 in SW 14.8 mph 14.8 mph 44 % 0.0 in
14:48 31.9 °F 17.4 °F 1010.7 in SW 9.3 mph 9.3 mph 42 % 0.0 in
14:53 32.5 °F 17.6 °F 1010.7 in SW 9.0 mph 9.0 mph 41 % 0.0 in
14:58 32.4 °F 17.4 °F 1010.7 in SSW 9.3 mph 9.3 mph 41 % 0.0 in
15:03 32.5 °F 17.2 °F 1010.7 in WSW 11.1 mph 11.1 mph 40 % 0.0 in
15:08 32.5 °F 17.2 °F 1010.7 in WNW 9.3 mph 9.3 mph 40 % 0.0 in
15:13 32.5 °F 16.8 °F 1010.7 in SW 14.8 mph 14.8 mph 39 % 0.0 in
15:18 32.1 °F 16.4 °F 1010.7 in SSW 11.4 mph 11.4 mph 39 % 0.0 in
15:23 32.6 °F 16.8 °F 1010.7 in SW 11.9 mph 11.9 mph 39 % 0.0 in
15:28 32.4 °F 16.3 °F 1010.7 in SW 9.3 mph 10.3 mph 38 % 0.0 in
15:33 32.4 °F 16.3 °F 1010.7 in SSW 11.1 mph 11.1 mph 38 % 0.0 in
15:38 32.1 °F 16.0 °F 1010.7 in SSE 13.0 mph 13.0 mph 38 % 0.0 in
15:43 32.4 °F 15.8 °F 1010.7 in South 7.4 mph 7.4 mph 37 % 0.0 in
15:48 33.2 °F 16.6 °F 1010.7 in SSW 13.0 mph 13.0 mph 37 % 0.0 in
15:53 32.1 °F 15.6 °F 1010.7 in West 3.7 mph 5.0 mph 37 % 0.0 in
15:58 32.0 °F 15.5 °F 1010.7 in SSW 9.3 mph 9.3 mph 37 % 0.0 in
16:03 32.3 °F 15.8 °F 1010.7 in SW 9.5 mph 9.5 mph 37 % 0.0 in
16:08 32.4 °F 15.4 °F 1010.7 in SW 14.8 mph 14.8 mph 36 % 0.0 in
16:13 32.6 °F 15.6 °F 1010.7 in West 9.5 mph 9.5 mph 36 % 0.0 in
16:18 32.1 °F 14.3 °F 1010.7 in South 16.7 mph 16.7 mph 34 % 0.0 in
16:23 32.0 °F 14.6 °F 1010.7 in SW 11.4 mph 11.4 mph 35 % 0.0 in
16:28 32.2 °F 14.8 °F 1010.7 in WSW 7.4 mph 7.6 mph 35 % 0.0 in
16:33 32.4 °F 15.0 °F 1010.7 in WSW 13.0 mph 13.0 mph 35 % 0.0 in
16:38 32.2 °F 14.8 °F 1010.0 in ESE 9.3 mph 9.3 mph 35 % 0.0 in
16:43 32.2 °F 14.8 °F 1010.0 in West 7.4 mph 7.4 mph 35 % 0.0 in
16:48 32.3 °F 14.9 °F 1010.0 in SW 6.9 mph 6.9 mph 35 % 0.0 in
16:53 31.7 °F 13.9 °F 1010.0 in South 14.8 mph 14.8 mph 34 % 0.0 in
16:58 31.6 °F 14.3 °F 1010.0 in West 14.5 mph 14.5 mph 35 % 0.0 in
17:03 31.4 °F 14.1 °F 1010.0 in WSW 13.0 mph 13.0 mph 35 % 0.0 in
17:08 31.4 °F 14.1 °F 1010.7 in SW 7.4 mph 7.4 mph 35 % 0.0 in
17:13 31.2 °F 13.5 °F 1010.7 in SW 9.5 mph 9.5 mph 34 % 0.0 in
17:18 31.3 °F 13.6 °F 1010.7 in South 14.8 mph 14.8 mph 34 % 0.0 in
17:23 31.2 °F 13.9 °F 1010.0 in West 13.7 mph 13.7 mph 35 % 0.0 in
17:28 31.6 °F 14.3 °F 1010.0 in SSW 16.7 mph 16.7 mph 35 % 0.0 in
17:33 31.0 °F 13.3 °F 1010.0 in WSW 20.4 mph 20.4 mph 34 % 0.0 in
17:38 31.2 °F 13.5 °F 1010.0 in SSW 11.1 mph 11.1 mph 34 % 0.0 in
17:43 31.4 °F 13.7 °F 1010.0 in SW 11.1 mph 11.1 mph 34 % 0.0 in
17:48 31.2 °F 13.5 °F 1010.0 in SW 11.1 mph 11.1 mph 34 % 0.0 in
17:53 31.5 °F 13.7 °F 1010.0 in SW 13.7 mph 13.7 mph 34 % 0.0 in
17:58 31.2 °F 13.5 °F 1010.0 in SW 9.0 mph 9.0 mph 34 % 0.0 in
18:03 31.1 °F 13.4 °F 1010.0 in SSW 9.3 mph 9.3 mph 34 % 0.0 in
18:08 30.5 °F 12.4 °F 1010.0 in SW 16.7 mph 16.7 mph 33 % 0.0 in
18:13 30.4 °F 12.8 °F 1010.0 in SW 9.5 mph 9.5 mph 34 % 0.0 in
18:18 30.1 °F 12.5 °F 1010.0 in South 9.5 mph 9.5 mph 34 % 0.0 in
18:23 30.1 °F 12.5 °F 1010.0 in SW 5.6 mph 5.6 mph 34 % 0.0 in
18:28 30.0 °F 12.9 °F 1010.0 in SW 5.6 mph 5.6 mph 35 % 0.0 in
18:33 29.8 °F 12.7 °F 1010.0 in South 3.7 mph 3.9 mph 35 % 0.0 in
18:38 29.9 °F 13.2 °F 1010.0 in SSW 1.9 mph   36 % 0.0 in
18:43 29.7 °F 13.1 °F 1010.0 in WSW 7.4 mph 7.4 mph 36 % 0.0 in
18:48 29.3 °F 12.7 °F 1010.0 in WSW 5.6 mph 5.6 mph 36 % 0.0 in
18:53 29.3 °F 12.7 °F 1010.0 in SW 7.4 mph 7.4 mph 36 % 0.0 in
18:58 29.1 °F 12.9 °F 1010.0 in SW 11.1 mph 11.1 mph 37 % 0.0 in
19:03 29.0 °F 12.8 °F 1010.0 in SW 7.4 mph 7.4 mph 37 % 0.0 in
19:08 28.9 °F 13.2 °F 1010.7 in SSW 5.8 mph 5.8 mph 38 % 0.0 in
19:13 28.7 °F 13.4 °F 1010.7 in West 9.3 mph 9.3 mph 39 % 0.0 in
19:18 28.4 °F 13.1 °F 1010.7 in SSW 9.5 mph 9.5 mph 39 % 0.0 in
19:23 28.2 °F 13.3 °F 1010.7 in West 9.3 mph 9.3 mph 40 % 0.0 in
19:28 28.0 °F 13.2 °F 1010.7 in WSW 6.9 mph 6.9 mph 40 % 0.0 in
19:33 27.7 °F 13.3 °F 1010.7 in WSW 13.0 mph 13.0 mph 41 % 0.0 in
19:38 27.4 °F 13.0 °F 1010.7 in WSW 14.8 mph 14.8 mph 41 % 0.0 in
19:43 27.4 °F 13.0 °F 1010.7 in South 13.0 mph 13.0 mph 41 % 0.0 in
19:48 27.2 °F 12.8 °F 1010.7 in WSW 9.3 mph 9.3 mph 41 % 0.0 in
19:53 27.0 °F 12.6 °F 1011.7 in WSW 13.0 mph 13.0 mph 41 % 0.0 in
19:58 26.8 °F 12.8 °F 1011.7 in WSW 13.0 mph 13.0 mph 42 % 0.0 in
20:00 22.9 °F 16.4 °F 1013.8 in NE 1.6 mph 3.2 mph 67 % 0.0 in
20:03 26.7 °F 12.7 °F 1011.7 in WSW 9.3 mph 9.3 mph 42 % 0.0 in
20:08 26.6 °F 12.6 °F 1011.7 in SW 9.3 mph 9.3 mph 42 % 0.0 in
20:10 22.8 °F 16.6 °F 1013.8 in NE 3.2 mph 6.4 mph 68 % 0.0 in
20:13 26.5 °F 12.9 °F 1011.7 in SW 6.4 mph 6.4 mph 43 % 0.0 in
20:18 26.5 °F 12.9 °F 1011.7 in West 11.1 mph 11.1 mph 43 % 0.0 in
20:20 22.7 °F 16.5 °F 1013.8 in NE 3.2 mph 3.2 mph 68 % 0.0 in
20:23 26.6 °F 13.0 °F 1011.7 in SSW 7.4 mph 7.4 mph 43 % 0.0 in
20:28 26.7 °F 13.4 °F 1011.7 in SW 5.8 mph 5.8 mph 44 % 0.0 in
20:30 22.6 °F 16.6 °F 1013.8 in NNE 3.2 mph 4.8 mph 69 % 0.0 in
20:33 26.5 °F 13.3 °F 1011.7 in SW 5.6 mph 5.6 mph 44 % 0.0 in
20:38 26.5 °F 13.3 °F 1011.7 in WSW 7.4 mph 7.4 mph 44 % 0.0 in
20:40 22.5 °F 16.8 °F 1013.8 in NNE 3.2 mph 4.8 mph 70 % 0.0 in
20:43 26.5 °F 13.3 °F 1011.7 in SW 6.1 mph 6.1 mph 44 % 0.0 in
20:48 26.3 °F 13.1 °F 1011.7 in South 9.3 mph 9.3 mph 44 % 0.0 in
20:50 22.4 °F 16.7 °F 1013.8 in NNE 3.2 mph 4.8 mph 70 % 0.0 in
20:53 26.2 °F 13.0 °F 1011.7 in West 7.4 mph 7.4 mph 44 % 0.0 in
20:58 26.1 °F 12.9 °F 1011.7 in SW 5.0 mph 5.0 mph 44 % 0.0 in
21:00 22.4 °F 17.1 °F 1013.8 in NE 3.2 mph 4.8 mph 72 % 0.0 in
21:03 26.1 °F 12.9 °F 1011.7 in SW 1.9 mph 1.9 mph 44 % 0.0 in
21:08 26.0 °F 13.2 °F 1011.7 in SW 1.9 mph 1.9 mph 45 % 0.0 in
21:10 22.3 °F 17.2 °F 1013.8 in NE 3.2 mph 4.8 mph 73 % 0.0 in
21:13 25.9 °F 13.1 °F 1011.7 in SSW 5.6 mph 5.6 mph 45 % 0.0 in
21:18 25.7 °F 12.9 °F 1011.7 in SW 5.6 mph 5.6 mph 45 % 0.0 in
21:20 22.2 °F 17.1 °F 1013.8 in NE 3.2 mph 6.4 mph 73 % 0.0 in
21:23 25.6 °F 12.8 °F 1011.7 in SW 3.9 mph 3.9 mph 45 % 0.0 in
21:28 25.5 °F 12.7 °F 1011.7 in West 3.7 mph 3.7 mph 45 % 0.0 in
21:30 22.3 °F 17.0 °F 1013.8 in NE 3.2 mph 4.8 mph 72 % 0.0 in
21:33 25.4 °F 12.6 °F 1011.7 in Calm     45 % 0.0 in
21:39 25.3 °F 12.5 °F 1012.8 in Calm     45 % 0.0 in
21:40 22.3 °F 17.0 °F 1013.8 in NE 3.2 mph 8.0 mph 72 % 0.0 in
21:44 25.2 °F 12.4 °F 1012.8 in West 3.7 mph 3.7 mph 45 % 0.0 in
21:49 25.1 °F 12.7 °F 1012.8 in West 3.5 mph   46 % 0.0 in
21:50 22.2 °F 17.1 °F 1013.8 in NE 3.2 mph 6.4 mph 73 % 0.0 in
21:54 25.0 °F 12.6 °F 1011.7 in SW 3.7 mph 3.7 mph 46 % 0.0 in
21:59 24.9 °F 12.8 °F 1011.7 in SW 1.9 mph 1.9 mph 47 % 0.0 in
22:00 22.1 °F 17.2 °F 1013.8 in ENE 1.6 mph 6.4 mph 74 % 0.0 in
22:04 24.7 °F 12.6 °F 1011.7 in Calm     47 % 0.0 in
22:09 24.6 °F 12.8 °F 1011.7 in Calm     48 % 0.0 in
22:10 22.0 °F 17.2 °F 1013.8 in ENE 4.8 mph 4.8 mph 74 % 0.0 in
22:14 24.6 °F 12.8 °F 1011.7 in Calm     48 % 0.0 in
22:19 24.5 °F 12.8 °F 1011.7 in Calm     48 % 0.0 in
22:20 21.9 °F 17.3 °F 1014.8 in NE 3.2 mph 4.8 mph 75 % 0.0 in
22:24 24.4 °F 13.0 °F 1012.8 in Calm     49 % 0.0 in
22:29 24.4 °F 13.0 °F 1012.8 in Calm     49 % 0.0 in
22:30 21.8 °F 17.2 °F 1013.8 in NE 3.2 mph 4.8 mph 75 % 0.0 in
22:34 24.3 °F 12.9 °F 1012.8 in Calm     49 % 0.0 in
22:39 24.3 °F 12.9 °F 1013.8 in NNE 2.3 mph   49 % 0.0 in
22:40 21.7 °F 17.3 °F 1013.8 in ENE 1.6 mph 3.2 mph 76 % 0.0 in
22:44 24.4 °F 13.0 °F 1013.8 in NNE 5.6 mph 5.6 mph 49 % 0.0 in
22:45 24.4 °F 13.0 °F 1013.8 in NNE 1.9 mph   49 % 0.0 in
22:50 24.3 °F 12.9 °F 1013.8 in NNE 3.7 mph 3.7 mph 49 % 0.0 in
22:55 24.3 °F 12.9 °F 1013.8 in NE 3.7 mph 3.7 mph 49 % 0.0 in
23:00 24.3 °F 13.2 °F 1013.8 in NE 1.9 mph 1.9 mph 50 % 0.0 in
23:05 24.2 °F 13.1 °F 1013.8 in Calm     50 % 0.0 in
23:10 24.1 °F 13.0 °F 1013.8 in Calm     50 % 0.0 in
23:15 24.1 °F 13.3 °F 1013.8 in North 3.7 mph 3.7 mph 51 % 0.0 in
23:20 24.1 °F 13.3 °F 1013.8 in NNE 3.7 mph 3.7 mph 51 % 0.0 in
23:25 24.0 °F 13.8 °F 1013.8 in NE 2.6 mph 2.6 mph 53 % 0.0 in
23:30 24.0 °F 13.8 °F 1013.8 in NNE 3.7 mph 3.7 mph 53 % 0.0 in
23:35 23.9 °F 14.6 °F 1013.8 in NNE 1.9 mph   56 % 0.0 in
23:40 23.8 °F 14.8 °F 1013.8 in NE 3.7 mph 3.7 mph 57 % 0.0 in
23:45 23.8 °F 15.1 °F 1013.8 in NE 3.7 mph 3.7 mph 58 % 0.0 in
23:50 23.7 °F 15.2 °F 1013.8 in Calm     59 % 0.0 in
23:55 23.6 °F 15.4 °F 1013.8 in NE 3.7 mph 3.7 mph 60 % 0.0 in
Meteo Sesrovires
Elogis d' Weather Underground - 2 mb

Guio original per  Jim McMurry - jmcmurry@mwt.net Adaptat per a la plantilla per  Wim van der Kuil - Leuven-Template.eu

Trobareu la nostra informacio del temps tambe a:

Weather Underground

AWEKAS